Time;durP1;ratioP1;P1;durP2;ratioP2;P2;SDS_P1;SDS_P2;PMS_P1;PMS_P2;Temp;Humidity;BMP_temperature;BMP_pressure;BME280_temperature;BME280_humidity;BME280_pressure;Samples;Min_cycle;Max_cycle;Signal;HPM_P1;HPM_P2
2022/11/06 00:00:34;;;;;;;9.70;6.23;;;;;;;;;;5077378;28;20469;-72
2022/11/06 00:03:23;;;;;;;6.13;5.53;;;;;;;;;;5072565;28;20476;-73
2022/11/06 00:09:39;;;;;;;5.97;5.40;;;;;;;;;;5025030;28;20467;-74
2022/11/06 00:12:28;;;;;;;5.97;5.47;;;;;;;;;;5012503;28;20503;-73
2022/11/06 00:15:21;;;;;;;6.80;5.63;;;;;;;;;;5072745;28;20549;-74
2022/11/06 00:18:10;;;;;;;7.27;5.20;;;;;;;;;;5069435;28;20456;-73
2022/11/06 00:21:09;;;;;;;6.13;4.93;;;;;;;;;;5075516;28;22671;-74
2022/11/06 00:23:59;;;;;;;9.00;5.20;;;;;;;;;;5077087;28;20483;-74
2022/11/06 00:26:49;;;;;;;6.00;5.47;;;;;;;;;;5066701;28;20449;-74
2022/11/06 00:29:44;;;;;;;5.87;4.90;;;;;;;;;;5065064;28;20628;-74
2022/11/06 00:32:35;;;;;;;8.10;5.13;;;;;;;;;;5064788;28;20637;-74
2022/11/06 00:35:24;;;;;;;9.40;5.50;;;;;;;;;;5066284;28;20456;-74
2022/11/06 00:38:12;;;;;;;5.83;4.80;;;;;;;;;;5063657;28;20456;-74
2022/11/06 00:41:03;;;;;;;6.90;5.30;;;;;;;;;;5072905;28;21015;-74
2022/11/06 00:43:52;;;;;;;5.67;4.70;;;;;;;;;;5070992;28;20509;-73
2022/11/06 00:46:43;;;;;;;5.80;4.60;;;;;;;;;;5063745;28;20457;-74
2022/11/06 00:49:33;;;;;;;6.73;5.17;;;;;;;;;;5065619;28;20480;-74
2022/11/06 00:52:23;;;;;;;8.50;5.63;;;;;;;;;;5077693;28;20488;-73
2022/11/06 00:55:15;;;;;;;7.33;5.20;;;;;;;;;;5071771;28;20961;-74
2022/11/06 00:58:04;;;;;;;5.90;5.20;;;;;;;;;;5071082;28;20448;-74
2022/11/06 01:00:54;;;;;;;5.70;4.90;;;;;;;;;;5063664;28;20483;-74
2022/11/06 01:03:49;;;;;;;5.00;4.50;;;;;;;;;;5061410;28;20518;-74
2022/11/06 01:06:43;;;;;;;5.17;4.67;;;;;;;;;;5057650;28;20484;-74
2022/11/06 01:09:39;;;;;;;6.13;5.17;;;;;;;;;;5058757;28;20476;-74
2022/11/06 01:12:32;;;;;;;7.20;4.80;;;;;;;;;;5060569;28;20478;-75
2022/11/06 01:15:20;;;;;;;5.73;4.87;;;;;;;;;;5064624;28;20472;-74
2022/11/06 01:18:11;;;;;;;6.83;5.20;;;;;;;;;;5074388;28;20576;-73
2022/11/06 01:21:07;;;;;;;5.37;4.83;;;;;;;;;;5079941;28;20470;-73
2022/11/06 01:24:00;;;;;;;6.50;4.67;;;;;;;;;;5077344;28;20463;-74
2022/11/06 01:26:53;;;;;;;5.73;5.23;;;;;;;;;;5080613;28;20442;-73
2022/11/06 01:30:02;;;;;;;5.10;4.60;;;;;;;;;;5080500;28;20479;-73
2022/11/06 01:32:57;;;;;;;5.53;5.03;;;;;;;;;;5077990;28;20472;-73
2022/11/06 01:35:47;;;;;;;5.97;5.00;;;;;;;;;;5079378;28;20981;-73
2022/11/06 01:38:35;;;;;;;5.30;4.80;;;;;;;;;;5076557;28;20449;-73
2022/11/06 01:41:28;;;;;;;5.97;4.63;;;;;;;;;;5087167;28;20971;-73
2022/11/06 01:44:35;;;;;;;5.30;4.80;;;;;;;;;;5082580;28;20845;-73
2022/11/06 01:47:26;;;;;;;6.80;4.47;;;;;;;;;;5073125;28;20453;-74
2022/11/06 01:50:19;;;;;;;4.60;4.20;;;;;;;;;;5061444;28;20996;-74
2022/11/06 01:53:13;;;;;;;4.83;4.43;;;;;;;;;;5070530;28;20496;-73
2022/11/06 01:56:07;;;;;;;5.03;4.63;;;;;;;;;;5079186;28;20458;-73
2022/11/06 01:58:57;;;;;;;6.23;5.67;;;;;;;;;;5066662;28;20461;-74
2022/11/06 02:01:49;;;;;;;5.10;4.60;;;;;;;;;;5068322;28;20481;-74
2022/11/06 02:04:47;;;;;;;6.90;4.83;;;;;;;;;;5065449;28;20505;-73
2022/11/06 02:07:35;;;;;;;5.73;4.60;;;;;;;;;;5068051;28;20454;-74
2022/11/06 02:10:26;;;;;;;6.47;5.30;;;;;;;;;;5063756;28;20469;-74
2022/11/06 02:13:22;;;;;;;5.50;4.17;;;;;;;;;;5066030;28;20991;-74
2022/11/06 02:16:14;;;;;;;7.33;5.03;;;;;;;;;;5066194;28;20453;-73
2022/11/06 02:19:09;;;;;;;8.03;5.23;;;;;;;;;;5056250;28;20441;-73
2022/11/06 02:22:05;;;;;;;6.13;5.13;;;;;;;;;;5064955;28;20466;-74
2022/11/06 02:25:09;;;;;;;5.30;4.80;;;;;;;;;;5075965;28;20481;-74
2022/11/06 02:28:03;;;;;;;5.47;4.97;;;;;;;;;;5068256;28;20465;-73
2022/11/06 02:30:56;;;;;;;4.93;4.50;;;;;;;;;;5072191;28;21178;-74
2022/11/06 02:33:51;;;;;;;6.70;5.20;;;;;;;;;;5063530;28;20544;-74
2022/11/06 02:36:47;;;;;;;6.80;4.60;;;;;;;;;;5063878;28;21329;-74
2022/11/06 02:39:37;;;;;;;4.97;4.57;;;;;;;;;;5057062;28;20875;-74
2022/11/06 02:42:27;;;;;;;6.83;5.07;;;;;;;;;;5055291;28;20477;-74
2022/11/06 02:45:22;;;;;;;5.00;4.50;;;;;;;;;;5055028;28;20578;-74
2022/11/06 02:48:10;;;;;;;5.70;4.83;;;;;;;;;;5064413;28;20499;-74
2022/11/06 02:51:03;;;;;;;5.23;4.83;;;;;;;;;;5057913;28;20500;-74
2022/11/06 02:53:54;;;;;;;5.60;4.70;;;;;;;;;;5068673;28;20455;-74
2022/11/06 02:56:46;;;;;;;7.83;4.80;;;;;;;;;;5059873;28;20450;-74
2022/11/06 02:59:40;;;;;;;6.10;4.97;;;;;;;;;;5073044;28;20627;-74
2022/11/06 03:02:35;;;;;;;6.60;5.60;;;;;;;;;;5068080;28;20489;-74
2022/11/06 03:05:28;;;;;;;5.00;4.50;;;;;;;;;;5057717;28;20473;-74
2022/11/06 03:08:18;;;;;;;9.17;5.47;;;;;;;;;;5071514;28;20468;-74
2022/11/06 03:14:18;;;;;;;6.57;4.97;;;;;;;;;;5072304;28;20437;-74
2022/11/06 03:17:10;;;;;;;5.20;4.70;;;;;;;;;;5070213;28;20450;-74
2022/11/06 03:20:04;;;;;;;5.00;4.53;;;;;;;;;;5077799;28;21124;-74
2022/11/06 03:22:56;;;;;;;11.03;4.97;;;;;;;;;;5077004;28;20480;-74
2022/11/06 03:25:53;;;;;;;5.40;4.90;;;;;;;;;;5075406;28;20488;-74
2022/11/06 03:28:52;;;;;;;5.73;4.80;;;;;;;;;;5061587;28;20488;-74
2022/11/06 03:31:47;;;;;;;6.40;4.70;;;;;;;;;;5056227;28;20480;-75
2022/11/06 03:34:41;;;;;;;6.60;4.93;;;;;;;;;;5071635;28;21071;-73
2022/11/06 03:37:37;;;;;;;7.10;4.53;;;;;;;;;;5066584;28;20468;-74
2022/11/06 03:40:30;;;;;;;6.97;5.70;;;;;;;;;;5064694;28;20858;-74
2022/11/06 03:43:22;;;;;;;6.50;4.43;;;;;;;;;;5071590;28;20540;-74
2022/11/06 03:46:23;;;;;;;;;;;;;;;;;;;;;
2022/11/06 03:49:14;;;;;;;5.10;4.70;;;;;;;;;;5073674;28;20936;-74
2022/11/06 03:52:07;;;;;;;6.27;4.60;;;;;;;;;;5062807;28;20474;-74
2022/11/06 03:55:05;;;;;;;5.57;5.03;;;;;;;;;;5069828;28;21873;-74
2022/11/06 03:58:02;;;;;;;6.40;5.70;;;;;;;;;;5064463;28;20449;-74
2022/11/06 04:00:55;;;;;;;8.20;4.93;;;;;;;;;;5071494;28;20478;-74
2022/11/06 04:03:45;;;;;;;7.67;5.17;;;;;;;;;;5078515;28;21011;-74
2022/11/06 04:06:38;;;;;;;5.20;4.70;;;;;;;;;;5077414;28;20452;-74
2022/11/06 04:15:49;;;;;;;5.30;4.40;;;;;;;;;;5075108;28;20484;-74
2022/11/06 04:18:40;;;;;;;5.53;4.80;;;;;;;;;;5076216;28;20461;-74
2022/11/06 04:21:44;;;;;;;4.83;4.43;;;;;;;;;;5066553;28;20489;-74
2022/11/06 04:27:58;;;;;;;4.80;4.30;;;;;;;;;;5069819;28;20968;-74
2022/11/06 04:30:49;;;;;;;6.23;4.50;;;;;;;;;;5067454;28;20469;-74
2022/11/06 04:33:41;;;;;;;5.10;4.50;;;;;;;;;;5071951;28;22384;-74
2022/11/06 04:36:37;;;;;;;5.53;4.90;;;;;;;;;;5068300;28;21133;-74
2022/11/06 04:39:29;;;;;;;5.03;4.53;;;;;;;;;;5069529;28;20464;-74
2022/11/06 04:42:24;;;;;;;5.13;4.13;;;;;;;;;;5065160;28;20529;-74
2022/11/06 04:45:30;;;;;;;5.87;4.40;;;;;;;;;;5060149;28;21549;-74
2022/11/06 04:48:24;;;;;;;7.30;4.40;;;;;;;;;;5071516;28;20583;-74
2022/11/06 04:51:17;;;;;;;5.23;4.70;;;;;;;;;;5066866;28;20522;-75
2022/11/06 04:54:09;;;;;;;5.23;4.73;;;;;;;;;;5073219;28;20489;-74
2022/11/06 04:56:59;;;;;;;5.30;4.23;;;;;;;;;;5067312;28;20457;-74
2022/11/06 04:59:48;;;;;;;4.43;4.03;;;;;;;;;;5060302;28;20934;-74
2022/11/06 05:02:43;;;;;;;7.30;4.50;;;;;;;;;;5071651;28;20485;-74
2022/11/06 05:05:34;;;;;;;6.27;4.50;;;;;;;;;;5075487;28;20480;-74
2022/11/06 05:08:25;;;;;;;6.30;3.97;;;;;;;;;;5063111;28;20445;-74
2022/11/06 05:11:20;;;;;;;4.83;4.03;;;;;;;;;;5049269;28;20485;-74
2022/11/06 05:14:21;;;;;;;4.60;3.83;;;;;;;;;;5063449;28;20461;-74
2022/11/06 05:17:11;;;;;;;6.20;3.80;;;;;;;;;;5068979;28;20452;-74
2022/11/06 05:20:10;;;;;;;5.40;4.23;;;;;;;;;;5074010;28;21068;-74
2022/11/06 05:23:00;;;;;;;6.90;4.50;;;;;;;;;;5075669;28;20480;-74
2022/11/06 05:25:49;;;;;;;5.23;4.60;;;;;;;;;;5071479;28;20860;-74
2022/11/06 05:28:38;;;;;;;7.20;4.70;;;;;;;;;;5073704;28;20449;-74
2022/11/06 05:31:30;;;;;;;6.97;4.53;;;;;;;;;;5068537;28;20653;-74
2022/11/06 05:34:22;;;;;;;4.43;4.03;;;;;;;;;;5076344;28;20458;-73
2022/11/06 05:37:11;;;;;;;6.57;4.30;;;;;;;;;;5077170;28;20438;-74
2022/11/06 05:40:00;;;;;;;7.30;4.63;;;;;;;;;;5074000;28;20474;-74
2022/11/06 05:42:48;;;;;;;5.33;4.30;;;;;;;;;;5078096;28;20477;-73
2022/11/06 05:45:42;;;;;;;5.00;3.83;;;;;;;;;;5080691;28;20966;-74
2022/11/06 05:48:31;;;;;;;5.30;4.30;;;;;;;;;;5076756;28;20466;-74
2022/11/06 05:51:22;;;;;;;4.50;4.10;;;;;;;;;;5070605;28;20489;-73
2022/11/06 05:54:14;;;;;;;5.30;4.80;;;;;;;;;;5071120;28;20453;-74
2022/11/06 05:57:07;;;;;;;4.43;4.03;;;;;;;;;;5069995;28;20973;-74
2022/11/06 05:59:56;;;;;;;4.60;4.20;;;;;;;;;;5063259;28;20469;-74
2022/11/06 06:02:45;;;;;;;4.23;3.77;;;;;;;;;;5060967;28;20604;-74
2022/11/06 06:05:34;;;;;;;6.00;4.50;;;;;;;;;;5067072;28;20477;-74
2022/11/06 06:08:22;;;;;;;5.20;4.30;;;;;;;;;;5073391;28;20957;-74
2022/11/06 06:11:14;;;;;;;5.07;4.57;;;;;;;;;;5066671;28;20564;-73
2022/11/06 06:14:14;;;;;;;5.50;4.93;;;;;;;;;;5063010;28;20453;-74
2022/11/06 06:17:02;;;;;;;4.23;3.83;;;;;;;;;;5062914;28;20459;-74
2022/11/06 06:20:02;;;;;;;4.73;4.27;;;;;;;;;;5084592;28;20466;-74
2022/11/06 06:22:55;;;;;;;4.60;4.10;;;;;;;;;;5083051;28;20473;-74
2022/11/06 06:25:49;;;;;;;5.50;4.97;;;;;;;;;;5083240;28;20492;-73
2022/11/06 06:28:48;;;;;;;5.70;4.40;;;;;;;;;;5076980;28;20448;-74
2022/11/06 06:31:36;;;;;;;7.73;4.73;;;;;;;;;;5068593;28;20484;-74
2022/11/06 06:34:28;;;;;;;6.73;4.60;;;;;;;;;;5071308;28;20464;-74
2022/11/06 06:37:20;;;;;;;5.33;4.27;;;;;;;;;;5074824;28;20450;-74
2022/11/06 06:40:10;;;;;;;6.17;4.23;;;;;;;;;;5077519;28;20476;-74
2022/11/06 06:43:01;;;;;;;6.07;5.10;;;;;;;;;;5077127;28;20572;-73
2022/11/06 06:45:56;;;;;;;4.67;4.27;;;;;;;;;;5072119;28;21000;-74
2022/11/06 06:48:44;;;;;;;5.73;4.23;;;;;;;;;;5072785;28;20823;-74
2022/11/06 06:51:33;;;;;;;6.53;4.10;;;;;;;;;;5072997;28;20481;-74
2022/11/06 06:54:31;;;;;;;6.07;4.77;;;;;;;;;;5074226;28;20442;-74
2022/11/06 06:57:20;;;;;;;6.90;4.37;;;;;;;;;;5072240;28;20443;-74
2022/11/06 07:00:11;;;;;;;5.90;4.20;;;;;;;;;;5060774;28;20484;-74
2022/11/06 07:03:04;;;;;;;5.40;4.37;;;;;;;;;;5063242;28;20469;-74
2022/11/06 07:05:53;;;;;;;6.30;4.27;;;;;;;;;;5059205;28;20530;-74
2022/11/06 07:08:42;;;;;;;4.03;3.63;;;;;;;;;;5065702;28;20863;-74
2022/11/06 07:11:30;;;;;;;4.23;3.80;;;;;;;;;;5056509;28;20483;-74
2022/11/06 07:14:19;;;;;;;4.37;3.97;;;;;;;;;;5063978;28;20453;-73
2022/11/06 07:17:07;;;;;;;6.13;3.83;;;;;;;;;;5065940;28;20449;-74
2022/11/06 07:19:58;;;;;;;6.87;4.23;;;;;;;;;;5063053;28;20485;-74
2022/11/06 07:22:49;;;;;;;4.03;3.50;;;;;;;;;;5067340;28;20520;-74
2022/11/06 07:25:37;;;;;;;5.07;3.80;;;;;;;;;;5065666;28;20456;-73
2022/11/06 07:28:26;;;;;;;4.20;3.80;;;;;;;;;;5066938;28;20460;-74
2022/11/06 07:31:14;;;;;;;6.53;4.80;;;;;;;;;;5067228;28;21185;-74
2022/11/06 07:34:03;;;;;;;6.20;4.03;;;;;;;;;;5063762;28;20541;-74
2022/11/06 07:36:53;;;;;;;4.40;3.83;;;;;;;;;;5074348;28;21744;-74
2022/11/06 07:39:41;;;;;;;5.37;3.53;;;;;;;;;;5071273;28;20996;-74
2022/11/06 07:42:30;;;;;;;3.80;3.37;;;;;;;;;;5060742;28;20488;-74
2022/11/06 07:45:18;;;;;;;6.10;3.93;;;;;;;;;;5059663;28;20446;-74
2022/11/06 07:48:07;;;;;;;5.47;3.40;;;;;;;;;;5062782;28;20461;-74
2022/11/06 07:50:55;;;;;;;4.73;3.90;;;;;;;;;;5072272;28;20480;-74
2022/11/06 07:53:45;;;;;;;4.70;4.30;;;;;;;;;;5063384;28;20476;-73
2022/11/06 07:56:34;;;;;;;5.33;3.80;;;;;;;;;;5077605;28;20449;-73
2022/11/06 07:59:22;;;;;;;4.47;3.57;;;;;;;;;;5070727;28;20485;-73
2022/11/06 08:02:11;;;;;;;3.93;3.47;;;;;;;;;;5065660;28;21038;-73
2022/11/06 08:05:00;;;;;;;4.40;4.00;;;;;;;;;;5066230;28;22148;-73
2022/11/06 08:07:49;;;;;;;4.80;3.30;;;;;;;;;;5073636;28;20934;-73
2022/11/06 08:10:42;;;;;;;3.73;3.40;;;;;;;;;;5070356;28;20511;-74
2022/11/06 08:13:34;;;;;;;5.73;3.80;;;;;;;;;;5054417;28;20469;-74
2022/11/06 08:16:23;;;;;;;3.80;3.50;;;;;;;;;;5061059;28;20470;-73
2022/11/06 08:19:12;;;;;;;4.80;3.57;;;;;;;;;;5069285;28;20456;-73
2022/11/06 08:22:03;;;;;;;4.33;3.30;;;;;;;;;;5075397;28;20477;-73
2022/11/06 08:24:53;;;;;;;3.60;3.30;;;;;;;;;;5075025;28;20471;-73
2022/11/06 08:27:43;;;;;;;3.50;3.20;;;;;;;;;;5077265;28;20485;-73
2022/11/06 08:30:35;;;;;;;4.70;3.10;;;;;;;;;;5067742;28;20484;-74
2022/11/06 08:33:24;;;;;;;5.90;3.90;;;;;;;;;;5069237;28;20454;-73
2022/11/06 08:36:12;;;;;;;6.13;3.10;;;;;;;;;;5067516;28;20453;-73
2022/11/06 08:39:01;;;;;;;5.93;3.40;;;;;;;;;;5066935;28;20457;-73
2022/11/06 08:41:49;;;;;;;5.37;3.33;;;;;;;;;;5060727;28;20499;-71
2022/11/06 08:44:41;;;;;;;5.00;3.30;;;;;;;;;;5059849;28;20460;-71
2022/11/06 08:47:29;;;;;;;4.60;3.20;;;;;;;;;;5075885;28;20474;-71
2022/11/06 08:50:18;;;;;;;4.23;3.10;;;;;;;;;;5080207;28;21220;-72
2022/11/06 08:53:07;;;;;;;4.57;3.10;;;;;;;;;;5072300;28;20462;-72
2022/11/06 08:55:58;;;;;;;4.13;3.20;;;;;;;;;;5062599;28;20506;-71
2022/11/06 08:58:46;;;;;;;3.80;2.80;;;;;;;;;;5066824;28;20450;-72
2022/11/06 09:01:44;;;;;;;3.70;3.23;;;;;;;;;;5064341;28;20491;-72
2022/11/06 09:04:32;;;;;;;6.53;3.40;;;;;;;;;;5064545;28;22287;-71
2022/11/06 09:07:28;;;;;;;3.60;3.30;;;;;;;;;;5063047;28;20804;-72
2022/11/06 09:10:17;;;;;;;3.20;2.90;;;;;;;;;;5057637;28;21593;-71
2022/11/06 09:13:06;;;;;;;3.70;3.10;;;;;;;;;;5073325;28;20460;-72
2022/11/06 09:15:57;;;;;;;3.50;3.20;;;;;;;;;;5074620;28;20476;-73
2022/11/06 09:18:47;;;;;;;3.57;2.80;;;;;;;;;;5073955;28;20451;-74
2022/11/06 09:21:36;;;;;;;4.00;2.97;;;;;;;;;;5074004;28;20838;-75
2022/11/06 09:24:24;;;;;;;4.17;3.20;;;;;;;;;;5061077;28;20449;-72
2022/11/06 09:27:33;;;;;;;3.53;2.90;;;;;;;;;;5069002;28;20481;-72
2022/11/06 09:30:22;;;;;;;5.20;3.50;;;;;;;;;;5071392;28;20992;-72
2022/11/06 09:33:11;;;;;;;4.10;3.40;;;;;;;;;;5061794;28;20457;-72
2022/11/06 09:36:04;;;;;;;4.00;2.93;;;;;;;;;;5060363;28;20472;-72
2022/11/06 09:38:52;;;;;;;4.40;3.00;;;;;;;;;;5064934;28;20446;-72
2022/11/06 09:41:47;;;;;;;4.00;2.80;;;;;;;;;;5061703;28;20473;-72
2022/11/06 09:44:45;;;;;;;3.67;3.37;;;;;;;;;;5062152;28;22406;-72
2022/11/06 09:47:36;;;;;;;5.00;3.00;;;;;;;;;;5063641;28;20482;-73
2022/11/06 09:50:27;;;;;;;3.33;2.43;;;;;;;;;;5063429;28;21525;-73
2022/11/06 09:53:20;;;;;;;3.17;2.87;;;;;;;;;;5068834;28;20453;-72
2022/11/06 09:56:11;;;;;;;5.40;2.90;;;;;;;;;;5057570;28;20448;-72
2022/11/06 09:59:01;;;;;;;6.30;2.97;;;;;;;;;;5068066;28;20898;-73
2022/11/06 10:01:52;;;;;;;5.00;2.77;;;;;;;;;;5059602;28;20493;-71
2022/11/06 10:04:42;;;;;;;4.53;2.80;;;;;;;;;;5058151;28;20459;-73
2022/11/06 10:07:32;;;;;;;4.90;2.60;;;;;;;;;;5053972;28;20774;-75
2022/11/06 10:10:25;;;;;;;3.37;3.00;;;;;;;;;;5050731;28;20638;-74
2022/11/06 10:13:18;;;;;;;4.67;2.70;;;;;;;;;;5063484;28;20497;-74
2022/11/06 10:16:10;;;;;;;2.60;2.40;;;;;;;;;;5062659;28;20461;-73
2022/11/06 10:19:03;;;;;;;3.57;3.27;;;;;;;;;;5056977;28;20454;-74
2022/11/06 10:21:56;;;;;;;2.70;2.50;;;;;;;;;;5062169;28;20473;-75
2022/11/06 10:24:46;;;;;;;3.00;2.67;;;;;;;;;;5057529;28;21004;-74
2022/11/06 10:27:39;;;;;;;3.10;2.40;;;;;;;;;;5055081;28;20488;-75
2022/11/06 10:30:31;;;;;;;3.20;2.40;;;;;;;;;;5062026;28;20603;-75
2022/11/06 10:33:24;;;;;;;4.30;2.73;;;;;;;;;;5059481;28;20461;-74
2022/11/06 10:36:15;;;;;;;5.23;2.47;;;;;;;;;;5068340;28;20460;-75
2022/11/06 10:39:04;;;;;;;3.80;2.40;;;;;;;;;;5061078;28;20437;-74
2022/11/06 10:41:55;;;;;;;5.57;2.50;;;;;;;;;;5062652;28;20477;-74
2022/11/06 10:44:48;;;;;;;2.40;2.20;;;;;;;;;;5052524;28;21507;-74
2022/11/06 10:47:39;;;;;;;3.03;2.60;;;;;;;;;;5056377;28;20605;-74
2022/11/06 10:50:33;;;;;;;4.00;2.30;;;;;;;;;;5059223;28;20469;-74
2022/11/06 10:53:28;;;;;;;2.80;2.50;;;;;;;;;;5068977;28;20494;-74
2022/11/06 10:56:30;;;;;;;4.90;2.50;;;;;;;;;;5065485;28;20464;-74
2022/11/06 10:59:19;;;;;;;3.53;2.57;;;;;;;;;;5074495;28;20460;-74
2022/11/06 11:02:19;;;;;;;4.60;3.10;;;;;;;;;;5064517;28;22582;-74
2022/11/06 11:05:12;;;;;;;3.17;2.10;;;;;;;;;;5063518;28;20433;-75
2022/11/06 11:08:00;;;;;;;2.80;2.10;;;;;;;;;;5064798;28;20474;-75
2022/11/06 11:10:51;;;;;;;4.33;2.57;;;;;;;;;;5061179;28;20563;-74
2022/11/06 11:14:07;;;;;;;3.73;2.13;;;;;;;;;;5050086;28;20461;-75
2022/11/06 11:16:59;;;;;;;3.60;2.53;;;;;;;;;;5062681;28;20465;-76
2022/11/06 11:19:49;;;;;;;2.33;2.13;;;;;;;;;;5063867;28;20526;-73
2022/11/06 11:22:38;;;;;;;3.00;2.33;;;;;;;;;;5076830;28;20491;-72
2022/11/06 11:25:26;;;;;;;3.67;2.47;;;;;;;;;;5073640;28;21361;-72
2022/11/06 11:28:28;;;;;;;4.17;2.33;;;;;;;;;;5064414;28;20477;-71
2022/11/06 11:31:18;;;;;;;1.97;1.80;;;;;;;;;;5066838;28;21035;-72
2022/11/06 11:34:08;;;;;;;3.83;2.07;;;;;;;;;;5067824;28;20567;-72
2022/11/06 11:36:59;;;;;;;1.77;1.67;;;;;;;;;;5064841;28;20950;-74
2022/11/06 11:39:49;;;;;;;2.63;2.10;;;;;;;;;;5062867;28;20556;-75
2022/11/06 11:42:38;;;;;;;2.53;2.00;;;;;;;;;;5057330;28;22390;-73
2022/11/06 11:45:26;;;;;;;3.20;1.90;;;;;;;;;;5061425;28;20460;-74
2022/11/06 11:48:15;;;;;;;3.43;2.13;;;;;;;;;;5077604;28;20575;-74
2022/11/06 11:51:11;;;;;;;1.97;1.80;;;;;;;;;;5078656;28;20489;-73
2022/11/06 11:54:04;;;;;;;2.20;2.00;;;;;;;;;;5083883;28;20449;-75
2022/11/06 11:56:55;;;;;;;3.20;2.20;;;;;;;;;;5083448;28;20686;-72
2022/11/06 11:59:55;;;;;;;2.50;1.80;;;;;;;;;;5065413;28;20469;-72
2022/11/06 12:02:51;;;;;;;2.23;2.03;;;;;;;;;;5065910;28;20473;-74
2022/11/06 12:05:51;;;;;;;1.97;1.70;;;;;;;;;;5069318;28;20453;-72
2022/11/06 12:08:41;;;;;;;2.60;1.90;;;;;;;;;;5066333;28;20478;-74
2022/11/06 12:11:31;;;;;;;4.03;1.93;;;;;;;;;;5066871;28;21011;-74
2022/11/06 12:14:27;;;;;;;2.10;1.70;;;;;;;;;;5067888;28;20453;-74
2022/11/06 12:17:18;;;;;;;2.20;1.63;;;;;;;;;;5061504;28;20508;-74
2022/11/06 12:20:11;;;;;;;2.00;1.50;;;;;;;;;;5063438;28;20469;-73
2022/11/06 12:23:01;;;;;;;2.50;1.73;;;;;;;;;;5063389;28;20469;-72
2022/11/06 12:25:54;;;;;;;3.47;1.50;;;;;;;;;;5070933;28;21495;-74
2022/11/06 12:28:45;;;;;;;2.20;1.60;;;;;;;;;;5068604;28;20477;-75
2022/11/06 12:31:37;;;;;;;2.73;1.67;;;;;;;;;;5067607;28;20486;-73
2022/11/06 12:34:32;;;;;;;2.03;1.40;;;;;;;;;;5077501;28;20475;-73
2022/11/06 12:37:26;;;;;;;2.37;1.80;;;;;;;;;;5069282;28;21466;-74
2022/11/06 12:40:20;;;;;;;2.43;1.93;;;;;;;;;;5074511;28;20473;-73
2022/11/06 12:43:16;;;;;;;2.20;1.90;;;;;;;;;;5074027;28;20450;-74
2022/11/06 12:46:13;;;;;;;2.37;1.90;;;;;;;;;;5062668;28;20457;-74
2022/11/06 12:49:08;;;;;;;2.80;2.10;;;;;;;;;;5063176;28;20533;-73
2022/11/06 12:52:03;;;;;;;4.63;2.27;;;;;;;;;;5063231;28;22716;-74
2022/11/06 12:54:59;;;;;;;2.20;2.10;;;;;;;;;;5063234;28;20535;-74
2022/11/06 12:57:56;;;;;;;2.00;1.80;;;;;;;;;;5061179;28;20969;-74
2022/11/06 13:00:51;;;;;;;3.17;2.13;;;;;;;;;;5055377;28;20480;-74
2022/11/06 13:04:00;;;;;;;2.10;1.90;;;;;;;;;;5045301;28;20449;-74
2022/11/06 13:07:06;;;;;;;2.27;2.07;;;;;;;;;;5073977;28;20528;-73
2022/11/06 13:10:01;;;;;;;2.10;1.90;;;;;;;;;;5078898;28;20486;-73
2022/11/06 13:12:53;;;;;;;4.43;2.20;;;;;;;;;;5079278;28;20469;-73
2022/11/06 13:15:46;;;;;;;2.90;2.10;;;;;;;;;;5081296;28;20457;-73
2022/11/06 13:18:36;;;;;;;2.60;1.87;;;;;;;;;;5078309;28;20809;-73
2022/11/06 13:21:33;;;;;;;2.57;2.00;;;;;;;;;;5079177;28;20560;-73
2022/11/06 13:24:28;;;;;;;2.00;1.87;;;;;;;;;;5080201;28;20600;-74
2022/11/06 13:27:24;;;;;;;1.87;1.77;;;;;;;;;;5079401;28;20457;-74
2022/11/06 13:30:14;;;;;;;2.63;2.00;;;;;;;;;;5079154;28;20482;-73
2022/11/06 13:33:05;;;;;;;2.23;2.03;;;;;;;;;;5080257;28;20445;-73
2022/11/06 13:35:54;;;;;;;2.67;2.00;;;;;;;;;;5080505;28;20838;-73
2022/11/06 13:38:46;;;;;;;2.33;1.80;;;;;;;;;;5079815;28;20465;-73
2022/11/06 13:41:35;;;;;;;2.57;2.37;;;;;;;;;;5073967;28;20868;-74
2022/11/06 13:44:24;;;;;;;1.70;1.60;;;;;;;;;;5077641;28;20462;-73
2022/11/06 13:47:15;;;;;;;2.23;2.00;;;;;;;;;;5077055;28;20463;-74
2022/11/06 13:50:06;;;;;;;2.20;1.83;;;;;;;;;;5076536;28;20478;-73
2022/11/06 13:52:58;;;;;;;2.43;2.00;;;;;;;;;;5078500;28;20477;-73
2022/11/06 13:55:54;;;;;;;2.37;2.10;;;;;;;;;;5078668;28;20448;-74
2022/11/06 13:59:00;;;;;;;2.27;2.07;;;;;;;;;;5077830;28;20449;-74
2022/11/06 14:01:54;;;;;;;3.70;2.00;;;;;;;;;;5074692;28;20480;-74
2022/11/06 14:04:51;;;;;;;1.90;1.80;;;;;;;;;;5078446;28;20452;-74
2022/11/06 14:07:42;;;;;;;2.20;2.00;;;;;;;;;;5074822;28;20460;-74
2022/11/06 14:10:33;;;;;;;2.87;2.60;;;;;;;;;;5074906;28;20879;-75
2022/11/06 14:13:31;;;;;;;2.67;2.40;;;;;;;;;;5076930;28;20478;-74
2022/11/06 14:16:27;;;;;;;4.13;2.33;;;;;;;;;;5076809;28;20469;-73
2022/11/06 14:19:25;;;;;;;2.53;2.33;;;;;;;;;;5076044;28;21037;-75
2022/11/06 14:22:20;;;;;;;3.80;2.70;;;;;;;;;;5077654;28;20611;-75
2022/11/06 14:25:23;;;;;;;3.10;2.90;;;;;;;;;;5077905;28;20442;-74
2022/11/06 14:28:28;;;;;;;3.30;2.83;;;;;;;;;;5070156;28;20476;-74
2022/11/06 14:31:35;;;;;;;3.03;2.63;;;;;;;;;;5078502;28;20871;-75
2022/11/06 14:34:29;;;;;;;2.93;2.50;;;;;;;;;;5077025;28;20465;-74
2022/11/06 14:37:36;;;;;;;5.13;4.63;;;;;;;;;;5072913;28;20449;-73
2022/11/06 14:40:33;;;;;;;4.20;3.90;;;;;;;;;;5076658;28;20992;-74
2022/11/06 14:43:25;;;;;;;5.70;3.90;;;;;;;;;;5071648;28;20831;-73
2022/11/06 14:46:17;;;;;;;10.47;9.37;;;;;;;;;;5077269;28;20455;-74
2022/11/06 14:49:16;;;;;;;8.60;7.40;;;;;;;;;;5075495;28;20453;-74
2022/11/06 14:52:07;;;;;;;3.50;3.20;;;;;;;;;;5077361;28;20851;-73
2022/11/06 14:54:59;;;;;;;4.27;3.87;;;;;;;;;;5077027;28;20453;-74
2022/11/06 14:57:55;;;;;;;5.50;3.10;;;;;;;;;;5075519;28;20451;-74
2022/11/06 15:00:47;;;;;;;6.13;4.43;;;;;;;;;;5074155;28;20473;-74
2022/11/06 15:03:38;;;;;;;4.20;3.70;;;;;;;;;;5078607;28;21008;-74
2022/11/06 15:06:44;;;;;;;6.47;4.77;;;;;;;;;;5077373;28;20460;-74
2022/11/06 15:09:50;;;;;;;3.83;3.47;;;;;;;;;;5076098;28;21175;-73
2022/11/06 15:12:57;;;;;;;6.50;4.10;;;;;;;;;;5074152;28;20479;-74
2022/11/06 15:15:46;;;;;;;5.43;4.00;;;;;;;;;;5074443;28;20464;-73
2022/11/06 15:18:36;;;;;;;4.50;4.10;;;;;;;;;;5064217;28;20465;-74
2022/11/06 15:21:28;;;;;;;4.50;3.93;;;;;;;;;;5073427;28;21011;-74
2022/11/06 15:24:21;;;;;;;7.23;3.53;;;;;;;;;;5072079;28;20992;-73
2022/11/06 15:27:15;;;;;;;4.63;3.70;;;;;;;;;;5057859;28;20991;-74
2022/11/06 15:30:06;;;;;;;5.30;3.60;;;;;;;;;;5062452;28;21303;-74
2022/11/06 15:32:55;;;;;;;4.23;3.50;;;;;;;;;;5071389;28;20473;-75
2022/11/06 15:35:50;;;;;;;5.53;3.10;;;;;;;;;;5065021;28;20530;-74
2022/11/06 15:38:42;;;;;;;4.33;3.47;;;;;;;;;;5060357;28;24085;-74
2022/11/06 15:41:31;;;;;;;4.20;3.90;;;;;;;;;;5056321;28;20474;-73
2022/11/06 15:44:22;;;;;;;5.10;4.70;;;;;;;;;;5058071;28;20459;-74
2022/11/06 15:47:20;;;;;;;3.83;3.43;;;;;;;;;;5062470;28;20453;-73
2022/11/06 15:50:14;;;;;;;8.77;8.03;;;;;;;;;;5062587;28;21120;-73
2022/11/06 15:53:15;;;;;;;6.43;3.57;;;;;;;;;;5062202;28;20461;-73
2022/11/06 15:56:06;;;;;;;4.13;3.10;;;;;;;;;;5064353;28;20465;-74
2022/11/06 15:59:05;;;;;;;3.43;3.00;;;;;;;;;;5063258;28;20467;-76
2022/11/06 16:01:56;;;;;;;3.90;3.10;;;;;;;;;;5056579;28;20485;-73
2022/11/06 16:04:46;;;;;;;3.73;3.33;;;;;;;;;;5067532;28;20449;-76
2022/11/06 16:07:36;;;;;;;3.53;3.23;;;;;;;;;;5054332;28;20480;-75
2022/11/06 16:10:25;;;;;;;3.80;3.17;;;;;;;;;;5056669;28;20495;-73
2022/11/06 16:13:15;;;;;;;3.90;3.40;;;;;;;;;;5072617;28;20465;-74
2022/11/06 16:16:27;;;;;;;3.73;3.43;;;;;;;;;;5060855;28;20597;-76
2022/11/06 16:19:30;;;;;;;3.93;3.57;;;;;;;;;;5054158;28;20457;-73
2022/11/06 16:22:19;;;;;;;3.67;3.30;;;;;;;;;;5053735;28;20610;-73
2022/11/06 16:25:16;;;;;;;3.40;3.10;;;;;;;;;;5056931;28;20498;-73
2022/11/06 16:28:05;;;;;;;3.87;3.37;;;;;;;;;;5071441;28;20526;-73
2022/11/06 16:30:54;;;;;;;3.60;3.17;;;;;;;;;;5059629;28;20488;-74
2022/11/06 16:33:53;;;;;;;4.37;3.50;;;;;;;;;;5082047;28;20497;-73
2022/11/06 16:36:58;;;;;;;4.17;3.70;;;;;;;;;;5063396;28;20457;-74
2022/11/06 16:39:51;;;;;;;3.80;3.30;;;;;;;;;;5077806;28;20609;-73
2022/11/06 16:43:00;;;;;;;3.80;3.30;;;;;;;;;;5073531;28;20481;-73
2022/11/06 16:45:53;;;;;;;3.83;3.47;;;;;;;;;;5079603;28;20453;-73
2022/11/06 16:48:44;;;;;;;4.00;3.60;;;;;;;;;;5060484;28;20484;-74
2022/11/06 16:51:33;;;;;;;3.97;3.13;;;;;;;;;;5055223;28;20481;-73
2022/11/06 16:54:27;;;;;;;4.40;3.20;;;;;;;;;;5061779;28;20598;-73
2022/11/06 16:57:19;;;;;;;4.37;3.20;;;;;;;;;;5072198;28;20457;-73
2022/11/06 17:00:08;;;;;;;4.00;3.40;;;;;;;;;;5061356;28;20660;-73
2022/11/06 17:03:00;;;;;;;4.13;3.40;;;;;;;;;;5053816;28;20474;-74
2022/11/06 17:05:55;;;;;;;3.53;3.23;;;;;;;;;;5060348;28;20472;-74
2022/11/06 17:08:44;;;;;;;3.63;3.30;;;;;;;;;;5071043;28;20445;-73
2022/11/06 17:11:37;;;;;;;6.47;3.43;;;;;;;;;;5071610;28;20477;-73
2022/11/06 17:14:27;;;;;;;4.17;3.00;;;;;;;;;;5071264;28;20454;-73
2022/11/06 17:17:26;;;;;;;4.20;3.80;;;;;;;;;;5073931;28;20498;-74
2022/11/06 17:20:18;;;;;;;3.27;2.97;;;;;;;;;;5069143;28;20696;-73
2022/11/06 17:23:07;;;;;;;4.33;3.20;;;;;;;;;;5070361;28;20458;-74
2022/11/06 17:26:02;;;;;;;4.83;3.67;;;;;;;;;;5069024;28;22268;-73
2022/11/06 17:28:52;;;;;;;3.00;2.80;;;;;;;;;;5072212;28;20453;-74
2022/11/06 17:31:41;;;;;;;6.00;3.30;;;;;;;;;;5055939;28;22740;-74